sensor_id;sensor_type;location;lat;lon;timestamp;temperature;humidity
15296;DHT22;7749;49.964;7.890;2022-11-15T00:01:15;8.60;99.90
15296;DHT22;7749;49.964;7.890;2022-11-15T00:03:44;8.60;99.90
15296;DHT22;7749;49.964;7.890;2022-11-15T00:06:13;8.60;99.90
15296;DHT22;7749;49.964;7.890;2022-11-15T00:08:40;8.70;99.90
15296;DHT22;7749;49.964;7.890;2022-11-15T00:11:10;8.70;99.90
15296;DHT22;7749;49.964;7.890;2022-11-15T00:13:38;8.80;99.90
15296;DHT22;7749;49.964;7.890;2022-11-15T00:16:06;8.80;99.90
15296;DHT22;7749;49.964;7.890;2022-11-15T00:18:34;8.90;99.90
15296;DHT22;7749;49.964;7.890;2022-11-15T00:21:12;8.90;99.90
15296;DHT22;7749;49.964;7.890;2022-11-15T00:23:40;8.90;99.90
15296;DHT22;7749;49.964;7.890;2022-11-15T00:26:11;9.00;99.90
15296;DHT22;7749;49.964;7.890;2022-11-15T00:28:40;9.00;99.90
15296;DHT22;7749;49.964;7.890;2022-11-15T00:31:11;9.00;99.90
15296;DHT22;7749;49.964;7.890;2022-11-15T00:33:39;9.00;99.90
15296;DHT22;7749;49.964;7.890;2022-11-15T00:36:09;9.00;99.90
15296;DHT22;7749;49.964;7.890;2022-11-15T00:38:39;9.00;99.90
15296;DHT22;7749;49.964;7.890;2022-11-15T00:41:08;9.10;99.90
15296;DHT22;7749;49.964;7.890;2022-11-15T00:43:36;9.10;99.90
15296;DHT22;7749;49.964;7.890;2022-11-15T00:46:04;9.10;99.90
15296;DHT22;7749;49.964;7.890;2022-11-15T00:48:32;9.10;99.90
15296;DHT22;7749;49.964;7.890;2022-11-15T00:50:59;9.10;99.90
15296;DHT22;7749;49.964;7.890;2022-11-15T00:53:27;9.10;99.90
15296;DHT22;7749;49.964;7.890;2022-11-15T00:55:55;9.20;99.90
15296;DHT22;7749;49.964;7.890;2022-11-15T00:58:23;9.20;99.90
15296;DHT22;7749;49.964;7.890;2022-11-15T01:00:50;9.30;99.90
15296;DHT22;7749;49.964;7.890;2022-11-15T01:03:18;9.20;99.90
15296;DHT22;7749;49.964;7.890;2022-11-15T01:05:46;9.30;99.90
15296;DHT22;7749;49.964;7.890;2022-11-15T01:08:15;9.30;99.90
15296;DHT22;7749;49.964;7.890;2022-11-15T01:10:43;9.30;99.90
15296;DHT22;7749;49.964;7.890;2022-11-15T01:13:10;9.30;99.90
15296;DHT22;7749;49.964;7.890;2022-11-15T01:15:41;9.40;99.90
15296;DHT22;7749;49.964;7.890;2022-11-15T01:18:09;9.40;99.90
15296;DHT22;7749;49.964;7.890;2022-11-15T01:20:41;9.50;99.90
15296;DHT22;7749;49.964;7.890;2022-11-15T01:23:09;9.50;99.90
15296;DHT22;7749;49.964;7.890;2022-11-15T01:25:37;9.50;99.90
15296;DHT22;7749;49.964;7.890;2022-11-15T01:28:05;9.60;99.90
15296;DHT22;7749;49.964;7.890;2022-11-15T01:30:32;9.60;99.90
15296;DHT22;7749;49.964;7.890;2022-11-15T01:33:00;9.50;99.90
15296;DHT22;7749;49.964;7.890;2022-11-15T01:35:28;9.50;99.90
15296;DHT22;7749;49.964;7.890;2022-11-15T01:37:55;9.50;99.90
15296;DHT22;7749;49.964;7.890;2022-11-15T01:40:23;9.50;99.90
15296;DHT22;7749;49.964;7.890;2022-11-15T01:42:50;9.50;99.90
15296;DHT22;7749;49.964;7.890;2022-11-15T01:45:18;9.60;99.90
15296;DHT22;7749;49.964;7.890;2022-11-15T01:47:51;9.50;99.90
15296;DHT22;7749;49.964;7.890;2022-11-15T01:50:24;9.60;99.90
15296;DHT22;7749;49.964;7.890;2022-11-15T01:52:52;9.50;99.90
15296;DHT22;7749;49.964;7.890;2022-11-15T01:55:24;9.50;99.90
15296;DHT22;7749;49.964;7.890;2022-11-15T01:57:55;9.50;99.90
15296;DHT22;7749;49.964;7.890;2022-11-15T02:00:24;9.50;99.90
15296;DHT22;7749;49.964;7.890;2022-11-15T02:02:52;9.50;99.90
15296;DHT22;7749;49.964;7.890;2022-11-15T02:05:19;9.40;99.90
15296;DHT22;7749;49.964;7.890;2022-11-15T02:07:47;9.40;99.90
15296;DHT22;7749;49.964;7.890;2022-11-15T02:10:21;9.40;99.90
15296;DHT22;7749;49.964;7.890;2022-11-15T02:12:49;9.50;99.90
15296;DHT22;7749;49.964;7.890;2022-11-15T02:15:18;9.50;99.90
15296;DHT22;7749;49.964;7.890;2022-11-15T02:29:05;9.50;99.90
15296;DHT22;7749;49.964;7.890;2022-11-15T02:31:56;9.50;99.90
15296;DHT22;7749;49.964;7.890;2022-11-15T02:37:34;9.60;99.90
15296;DHT22;7749;49.964;7.890;2022-11-15T02:42:40;9.70;99.90
15296;DHT22;7749;49.964;7.890;2022-11-15T02:45:41;9.70;99.90
15296;DHT22;7749;49.964;7.890;2022-11-15T02:48:12;9.60;99.90
15296;DHT22;7749;49.964;7.890;2022-11-15T02:50:39;9.60;99.90
15296;DHT22;7749;49.964;7.890;2022-11-15T02:53:08;9.50;99.90
15296;DHT22;7749;49.964;7.890;2022-11-15T02:55:48;9.50;99.90
15296;DHT22;7749;49.964;7.890;2022-11-15T03:01:01;9.40;99.90
15296;DHT22;7749;49.964;7.890;2022-11-15T03:06:59;9.30;99.90
15296;DHT22;7749;49.964;7.890;2022-11-15T03:09:45;9.30;99.90
15296;DHT22;7749;49.964;7.890;2022-11-15T03:12:33;9.30;99.90
15296;DHT22;7749;49.964;7.890;2022-11-15T03:15:12;9.30;99.90
15296;DHT22;7749;49.964;7.890;2022-11-15T03:18:43;9.30;99.90
15296;DHT22;7749;49.964;7.890;2022-11-15T03:20:50;9.30;99.90
15296;DHT22;7749;49.964;7.890;2022-11-15T03:23:18;9.30;99.90
15296;DHT22;7749;49.964;7.890;2022-11-15T03:25:48;9.30;99.90
15296;DHT22;7749;49.964;7.890;2022-11-15T03:28:23;9.40;99.90
15296;DHT22;7749;49.964;7.890;2022-11-15T03:30:54;9.30;99.90
15296;DHT22;7749;49.964;7.890;2022-11-15T03:33:22;9.30;99.90
15296;DHT22;7749;49.964;7.890;2022-11-15T03:35:52;9.20;99.90
15296;DHT22;7749;49.964;7.890;2022-11-15T03:38:27;9.20;99.90
15296;DHT22;7749;49.964;7.890;2022-11-15T03:41:03;9.20;99.90
15296;DHT22;7749;49.964;7.890;2022-11-15T03:43:55;9.20;99.90
15296;DHT22;7749;49.964;7.890;2022-11-15T03:46:32;9.30;99.90
15296;DHT22;7749;49.964;7.890;2022-11-15T03:49:33;9.20;99.90
15296;DHT22;7749;49.964;7.890;2022-11-15T03:52:03;9.20;99.90
15296;DHT22;7749;49.964;7.890;2022-11-15T03:54:31;9.20;99.90
15296;DHT22;7749;49.964;7.890;2022-11-15T03:56:59;9.20;99.90
15296;DHT22;7749;49.964;7.890;2022-11-15T03:59:26;9.30;99.90
15296;DHT22;7749;49.964;7.890;2022-11-15T04:01:54;9.20;99.90
15296;DHT22;7749;49.964;7.890;2022-11-15T04:04:21;9.20;99.90
15296;DHT22;7749;49.964;7.890;2022-11-15T04:06:49;9.20;99.90
15296;DHT22;7749;49.964;7.890;2022-11-15T04:09:16;9.10;99.90
15296;DHT22;7749;49.964;7.890;2022-11-15T04:11:45;9.00;99.90
15296;DHT22;7749;49.964;7.890;2022-11-15T04:14:12;9.10;99.90
15296;DHT22;7749;49.964;7.890;2022-11-15T04:16:40;9.00;99.90
15296;DHT22;7749;49.964;7.890;2022-11-15T04:19:10;9.10;99.90
15296;DHT22;7749;49.964;7.890;2022-11-15T04:21:56;9.10;99.90
15296;DHT22;7749;49.964;7.890;2022-11-15T04:24:43;9.10;99.90
15296;DHT22;7749;49.964;7.890;2022-11-15T04:27:10;9.10;99.90
15296;DHT22;7749;49.964;7.890;2022-11-15T04:29:40;9.10;99.90
15296;DHT22;7749;49.964;7.890;2022-11-15T04:32:07;9.20;99.90
15296;DHT22;7749;49.964;7.890;2022-11-15T04:34:35;9.20;99.90
15296;DHT22;7749;49.964;7.890;2022-11-15T04:37:03;9.20;99.90
15296;DHT22;7749;49.964;7.890;2022-11-15T04:39:40;9.20;99.90
15296;DHT22;7749;49.964;7.890;2022-11-15T04:42:08;9.30;99.90
15296;DHT22;7749;49.964;7.890;2022-11-15T04:44:36;9.40;99.90
15296;DHT22;7749;49.964;7.890;2022-11-15T04:47:04;9.40;99.90
15296;DHT22;7749;49.964;7.890;2022-11-15T04:49:32;9.40;99.90
15296;DHT22;7749;49.964;7.890;2022-11-15T04:52:00;9.40;99.90
15296;DHT22;7749;49.964;7.890;2022-11-15T04:54:27;9.50;99.90
15296;DHT22;7749;49.964;7.890;2022-11-15T04:56:55;9.50;99.90
15296;DHT22;7749;49.964;7.890;2022-11-15T04:59:23;9.50;99.90
15296;DHT22;7749;49.964;7.890;2022-11-15T05:01:50;9.50;99.90
15296;DHT22;7749;49.964;7.890;2022-11-15T05:04:18;9.50;99.90
15296;DHT22;7749;49.964;7.890;2022-11-15T05:06:50;9.50;99.90
15296;DHT22;7749;49.964;7.890;2022-11-15T05:09:19;9.50;99.90
15296;DHT22;7749;49.964;7.890;2022-11-15T05:11:47;9.50;99.90
15296;DHT22;7749;49.964;7.890;2022-11-15T05:14:15;9.50;99.90
15296;DHT22;7749;49.964;7.890;2022-11-15T05:16:43;9.50;99.90
15296;DHT22;7749;49.964;7.890;2022-11-15T05:19:11;9.50;99.90
15296;DHT22;7749;49.964;7.890;2022-11-15T05:21:39;9.50;99.90
15296;DHT22;7749;49.964;7.890;2022-11-15T05:24:08;9.50;99.90
15296;DHT22;7749;49.964;7.890;2022-11-15T05:26:37;9.50;99.90
15296;DHT22;7749;49.964;7.890;2022-11-15T05:29:04;9.60;99.90
15296;DHT22;7749;49.964;7.890;2022-11-15T05:31:32;9.60;99.90
15296;DHT22;7749;49.964;7.890;2022-11-15T05:34:01;9.70;99.90
15296;DHT22;7749;49.964;7.890;2022-11-15T05:39:05;9.70;99.90
15296;DHT22;7749;49.964;7.890;2022-11-15T05:41:39;9.70;99.90
15296;DHT22;7749;49.964;7.890;2022-11-15T05:44:10;9.70;99.90
15296;DHT22;7749;49.964;7.890;2022-11-15T05:46:40;9.70;99.90
15296;DHT22;7749;49.964;7.890;2022-11-15T05:49:12;9.70;99.90
15296;DHT22;7749;49.964;7.890;2022-11-15T05:51:41;9.70;99.90
15296;DHT22;7749;49.964;7.890;2022-11-15T05:54:10;9.70;99.90
15296;DHT22;7749;49.964;7.890;2022-11-15T05:56:38;9.80;99.90
15296;DHT22;7749;49.964;7.890;2022-11-15T05:59:07;9.80;99.90
15296;DHT22;7749;49.964;7.890;2022-11-15T06:01:35;9.90;99.90
15296;DHT22;7749;49.964;7.890;2022-11-15T06:04:03;9.90;99.90
15296;DHT22;7749;49.964;7.890;2022-11-15T06:06:30;9.80;99.90
15296;DHT22;7749;49.964;7.890;2022-11-15T06:08:58;9.80;99.90
15296;DHT22;7749;49.964;7.890;2022-11-15T06:11:26;9.80;99.90
15296;DHT22;7749;49.964;7.890;2022-11-15T06:13:53;9.80;99.90
15296;DHT22;7749;49.964;7.890;2022-11-15T06:16:21;9.70;99.90
15296;DHT22;7749;49.964;7.890;2022-11-15T06:18:49;9.70;99.90
15296;DHT22;7749;49.964;7.890;2022-11-15T06:21:17;9.70;99.90
15296;DHT22;7749;49.964;7.890;2022-11-15T06:23:44;9.70;99.90
15296;DHT22;7749;49.964;7.890;2022-11-15T06:26:12;9.60;99.90
15296;DHT22;7749;49.964;7.890;2022-11-15T06:28:39;9.60;99.90
15296;DHT22;7749;49.964;7.890;2022-11-15T06:31:09;9.60;99.90
15296;DHT22;7749;49.964;7.890;2022-11-15T06:33:39;9.50;99.90
15296;DHT22;7749;49.964;7.890;2022-11-15T06:36:09;9.50;99.90
15296;DHT22;7749;49.964;7.890;2022-11-15T06:38:44;9.50;99.90
15296;DHT22;7749;49.964;7.890;2022-11-15T06:41:13;9.50;99.90
15296;DHT22;7749;49.964;7.890;2022-11-15T06:43:41;9.60;99.90
15296;DHT22;7749;49.964;7.890;2022-11-15T06:46:09;9.70;99.90
15296;DHT22;7749;49.964;7.890;2022-11-15T06:48:37;9.70;99.90
15296;DHT22;7749;49.964;7.890;2022-11-15T06:51:05;9.60;99.90
15296;DHT22;7749;49.964;7.890;2022-11-15T06:53:32;9.60;99.90
15296;DHT22;7749;49.964;7.890;2022-11-15T06:56:02;9.60;99.90
15296;DHT22;7749;49.964;7.890;2022-11-15T06:58:30;9.60;99.90
15296;DHT22;7749;49.964;7.890;2022-11-15T07:01:04;9.60;99.90
15296;DHT22;7749;49.964;7.890;2022-11-15T07:03:35;9.60;99.90
15296;DHT22;7749;49.964;7.890;2022-11-15T07:06:03;9.50;99.90
15296;DHT22;7749;49.964;7.890;2022-11-15T07:08:37;9.50;99.90
15296;DHT22;7749;49.964;7.890;2022-11-15T07:11:06;9.50;99.90
15296;DHT22;7749;49.964;7.890;2022-11-15T07:13:35;9.40;99.90
15296;DHT22;7749;49.964;7.890;2022-11-15T07:16:09;9.40;99.90
15296;DHT22;7749;49.964;7.890;2022-11-15T07:18:39;9.40;99.90
15296;DHT22;7749;49.964;7.890;2022-11-15T07:21:09;9.40;99.90
15296;DHT22;7749;49.964;7.890;2022-11-15T07:23:38;9.40;99.90
15296;DHT22;7749;49.964;7.890;2022-11-15T07:26:06;9.40;99.90
15296;DHT22;7749;49.964;7.890;2022-11-15T07:28:35;9.50;99.90
15296;DHT22;7749;49.964;7.890;2022-11-15T07:31:07;9.50;99.90
15296;DHT22;7749;49.964;7.890;2022-11-15T07:33:35;9.50;99.90
15296;DHT22;7749;49.964;7.890;2022-11-15T07:36:05;9.70;99.90
15296;DHT22;7749;49.964;7.890;2022-11-15T07:38:34;9.70;99.90
15296;DHT22;7749;49.964;7.890;2022-11-15T07:41:09;9.80;99.90
15296;DHT22;7749;49.964;7.890;2022-11-15T07:43:37;9.80;99.90
15296;DHT22;7749;49.964;7.890;2022-11-15T07:46:06;9.80;99.90
15296;DHT22;7749;49.964;7.890;2022-11-15T07:48:37;9.80;99.90
15296;DHT22;7749;49.964;7.890;2022-11-15T07:51:12;9.80;99.90
15296;DHT22;7749;49.964;7.890;2022-11-15T07:53:42;9.80;99.90
15296;DHT22;7749;49.964;7.890;2022-11-15T07:56:10;9.90;99.90
15296;DHT22;7749;49.964;7.890;2022-11-15T07:58:38;9.90;99.90
15296;DHT22;7749;49.964;7.890;2022-11-15T08:01:08;9.90;99.90
15296;DHT22;7749;49.964;7.890;2022-11-15T08:03:37;10.00;99.90
15296;DHT22;7749;49.964;7.890;2022-11-15T08:06:05;10.10;99.90
15296;DHT22;7749;49.964;7.890;2022-11-15T08:08:32;10.20;99.90
15296;DHT22;7749;49.964;7.890;2022-11-15T08:11:00;10.30;99.90
15296;DHT22;7749;49.964;7.890;2022-11-15T08:13:28;10.40;99.90
15296;DHT22;7749;49.964;7.890;2022-11-15T08:16:00;10.50;99.90
15296;DHT22;7749;49.964;7.890;2022-11-15T08:18:28;10.70;99.90
15296;DHT22;7749;49.964;7.890;2022-11-15T08:20:59;10.70;99.90
15296;DHT22;7749;49.964;7.890;2022-11-15T08:23:27;10.70;99.90
15296;DHT22;7749;49.964;7.890;2022-11-15T08:26:00;10.90;99.90
15296;DHT22;7749;49.964;7.890;2022-11-15T08:28:29;11.00;99.90
15296;DHT22;7749;49.964;7.890;2022-11-15T08:30:56;11.10;99.90
15296;DHT22;7749;49.964;7.890;2022-11-15T08:33:24;11.00;99.90
15296;DHT22;7749;49.964;7.890;2022-11-15T08:35:52;11.10;99.90
15296;DHT22;7749;49.964;7.890;2022-11-15T08:38:19;11.10;99.90
15296;DHT22;7749;49.964;7.890;2022-11-15T08:40:47;11.20;99.90
15296;DHT22;7749;49.964;7.890;2022-11-15T08:43:15;11.20;99.90
15296;DHT22;7749;49.964;7.890;2022-11-15T08:45:43;11.20;99.90
15296;DHT22;7749;49.964;7.890;2022-11-15T08:48:10;11.20;99.90
15296;DHT22;7749;49.964;7.890;2022-11-15T08:50:38;11.40;99.90
15296;DHT22;7749;49.964;7.890;2022-11-15T08:53:07;11.50;99.90
15296;DHT22;7749;49.964;7.890;2022-11-15T08:55:36;11.60;99.90
15296;DHT22;7749;49.964;7.890;2022-11-15T08:58:05;11.60;99.90
15296;DHT22;7749;49.964;7.890;2022-11-15T09:00:33;11.60;99.90
15296;DHT22;7749;49.964;7.890;2022-11-15T09:03:06;11.60;99.90
15296;DHT22;7749;49.964;7.890;2022-11-15T09:05:36;11.60;99.90
15296;DHT22;7749;49.964;7.890;2022-11-15T09:08:04;11.60;99.90
15296;DHT22;7749;49.964;7.890;2022-11-15T09:10:52;11.60;99.90
15296;DHT22;7749;49.964;7.890;2022-11-15T09:13:19;11.70;99.90
15296;DHT22;7749;49.964;7.890;2022-11-15T09:15:47;11.70;99.90
15296;DHT22;7749;49.964;7.890;2022-11-15T09:18:14;11.80;99.90
15296;DHT22;7749;49.964;7.890;2022-11-15T09:20:42;11.80;99.90
15296;DHT22;7749;49.964;7.890;2022-11-15T09:23:10;11.80;99.90
15296;DHT22;7749;49.964;7.890;2022-11-15T09:25:37;11.80;99.90
15296;DHT22;7749;49.964;7.890;2022-11-15T09:28:06;11.80;99.90
15296;DHT22;7749;49.964;7.890;2022-11-15T09:30:34;11.70;99.90
15296;DHT22;7749;49.964;7.890;2022-11-15T09:33:12;11.70;99.90
15296;DHT22;7749;49.964;7.890;2022-11-15T09:35:39;11.70;99.90
15296;DHT22;7749;49.964;7.890;2022-11-15T09:38:08;11.70;99.90
15296;DHT22;7749;49.964;7.890;2022-11-15T09:40:37;11.80;99.90
15296;DHT22;7749;49.964;7.890;2022-11-15T09:43:27;11.80;99.90
15296;DHT22;7749;49.964;7.890;2022-11-15T09:48:56;11.90;99.90
15296;DHT22;7749;49.964;7.890;2022-11-15T09:56:52;11.90;99.90
15296;DHT22;7749;49.964;7.890;2022-11-15T10:02:46;11.80;99.90
15296;DHT22;7749;49.964;7.890;2022-11-15T10:05:19;11.80;99.90
15296;DHT22;7749;49.964;7.890;2022-11-15T10:08:18;11.90;99.90
15296;DHT22;7749;49.964;7.890;2022-11-15T10:10:53;11.80;99.90
15296;DHT22;7749;49.964;7.890;2022-11-15T10:13:45;11.80;99.90
15296;DHT22;7749;49.964;7.890;2022-11-15T10:19:30;11.90;99.90
15296;DHT22;7749;49.964;7.890;2022-11-15T10:22:12;12.00;99.90
15296;DHT22;7749;49.964;7.890;2022-11-15T10:24:44;12.10;99.90
15296;DHT22;7749;49.964;7.890;2022-11-15T10:27:17;12.20;99.90
15296;DHT22;7749;49.964;7.890;2022-11-15T10:29:49;12.30;99.90
15296;DHT22;7749;49.964;7.890;2022-11-15T10:32:19;12.30;99.90
15296;DHT22;7749;49.964;7.890;2022-11-15T10:34:48;12.40;99.90
15296;DHT22;7749;49.964;7.890;2022-11-15T10:37:31;12.50;99.90
15296;DHT22;7749;49.964;7.890;2022-11-15T10:40:04;12.50;99.90
15296;DHT22;7749;49.964;7.890;2022-11-15T10:42:32;12.70;99.90
15296;DHT22;7749;49.964;7.890;2022-11-15T10:44:59;12.70;99.90
15296;DHT22;7749;49.964;7.890;2022-11-15T10:47:29;12.90;99.90
15296;DHT22;7749;49.964;7.890;2022-11-15T10:50:27;13.00;99.90
15296;DHT22;7749;49.964;7.890;2022-11-15T10:52:55;13.30;99.90
15296;DHT22;7749;49.964;7.890;2022-11-15T10:55:28;13.50;99.90
15296;DHT22;7749;49.964;7.890;2022-11-15T10:58:06;13.70;99.90
15296;DHT22;7749;49.964;7.890;2022-11-15T11:00:46;14.00;99.90
15296;DHT22;7749;49.964;7.890;2022-11-15T11:03:35;14.20;99.90
15296;DHT22;7749;49.964;7.890;2022-11-15T11:06:12;14.60;99.90
15296;DHT22;7749;49.964;7.890;2022-11-15T11:08:54;14.80;99.90
15296;DHT22;7749;49.964;7.890;2022-11-15T11:11:22;15.00;99.90
15296;DHT22;7749;49.964;7.890;2022-11-15T11:13:50;15.30;99.90
15296;DHT22;7749;49.964;7.890;2022-11-15T11:16:32;15.50;99.90
15296;DHT22;7749;49.964;7.890;2022-11-15T11:22:19;15.90;99.90
15296;DHT22;7749;49.964;7.890;2022-11-15T11:24:50;16.40;99.90
15296;DHT22;7749;49.964;7.890;2022-11-15T11:33:33;18.20;99.90
15296;DHT22;7749;49.964;7.890;2022-11-15T11:36:25;18.50;99.90
15296;DHT22;7749;49.964;7.890;2022-11-15T11:39:05;18.90;99.90
15296;DHT22;7749;49.964;7.890;2022-11-15T11:41:46;19.00;99.90
15296;DHT22;7749;49.964;7.890;2022-11-15T11:44:26;18.90;99.90
15296;DHT22;7749;49.964;7.890;2022-11-15T11:47:01;18.60;99.90
15296;DHT22;7749;49.964;7.890;2022-11-15T11:49:39;18.30;99.90
15296;DHT22;7749;49.964;7.890;2022-11-15T11:52:22;18.00;99.90
15296;DHT22;7749;49.964;7.890;2022-11-15T11:58:12;17.70;99.90
15296;DHT22;7749;49.964;7.890;2022-11-15T12:00:52;17.50;99.90
15296;DHT22;7749;49.964;7.890;2022-11-15T12:03:34;17.30;99.90
15296;DHT22;7749;49.964;7.890;2022-11-15T12:09:17;16.70;99.90
15296;DHT22;7749;49.964;7.890;2022-11-15T12:12:07;16.60;99.90
15296;DHT22;7749;49.964;7.890;2022-11-15T12:14:42;16.50;99.90
15296;DHT22;7749;49.964;7.890;2022-11-15T12:17:11;16.20;99.90
15296;DHT22;7749;49.964;7.890;2022-11-15T12:19:40;16.10;99.90
15296;DHT22;7749;49.964;7.890;2022-11-15T12:22:20;16.00;99.90
15296;DHT22;7749;49.964;7.890;2022-11-15T12:24:56;15.90;99.90
15296;DHT22;7749;49.964;7.890;2022-11-15T12:30:19;16.30;99.90
15296;DHT22;7749;49.964;7.890;2022-11-15T12:32:57;16.20;99.90
15296;DHT22;7749;49.964;7.890;2022-11-15T12:35:29;15.90;99.90
15296;DHT22;7749;49.964;7.890;2022-11-15T12:37:58;15.60;99.90
15296;DHT22;7749;49.964;7.890;2022-11-15T12:40:28;15.40;99.90
15296;DHT22;7749;49.964;7.890;2022-11-15T12:45:51;15.50;99.90
15296;DHT22;7749;49.964;7.890;2022-11-15T12:59:10;18.00;99.90
15296;DHT22;7749;49.964;7.890;2022-11-15T13:01:59;18.30;99.90
15296;DHT22;7749;49.964;7.890;2022-11-15T13:04:29;18.40;99.90
15296;DHT22;7749;49.964;7.890;2022-11-15T13:07:05;18.10;99.90
15296;DHT22;7749;49.964;7.890;2022-11-15T13:12:10;17.30;99.90
15296;DHT22;7749;49.964;7.890;2022-11-15T13:14:54;17.10;99.90
15296;DHT22;7749;49.964;7.890;2022-11-15T13:22:28;16.60;99.90
15296;DHT22;7749;49.964;7.890;2022-11-15T13:31:24;16.10;99.90
15296;DHT22;7749;49.964;7.890;2022-11-15T13:33:56;16.00;99.90
15296;DHT22;7749;49.964;7.890;2022-11-15T13:36:31;15.80;99.90
15296;DHT22;7749;49.964;7.890;2022-11-15T13:39:45;15.60;99.90
15296;DHT22;7749;49.964;7.890;2022-11-15T13:41:53;15.50;99.90
15296;DHT22;7749;49.964;7.890;2022-11-15T13:44:27;15.30;99.90
15296;DHT22;7749;49.964;7.890;2022-11-15T13:47:15;15.10;99.90
15296;DHT22;7749;49.964;7.890;2022-11-15T13:49:43;15.00;99.90
15296;DHT22;7749;49.964;7.890;2022-11-15T13:52:14;14.80;99.90
15296;DHT22;7749;49.964;7.890;2022-11-15T13:57:29;14.40;99.90
15296;DHT22;7749;49.964;7.890;2022-11-15T14:00:02;14.30;99.90
15296;DHT22;7749;49.964;7.890;2022-11-15T14:02:32;14.20;99.90
15296;DHT22;7749;49.964;7.890;2022-11-15T14:05:19;14.20;99.90
15296;DHT22;7749;49.964;7.890;2022-11-15T14:10:43;14.00;99.90
15296;DHT22;7749;49.964;7.890;2022-11-15T14:13:27;14.00;99.90
15296;DHT22;7749;49.964;7.890;2022-11-15T14:16:19;14.10;99.90
15296;DHT22;7749;49.964;7.890;2022-11-15T14:18:51;14.00;99.90
15296;DHT22;7749;49.964;7.890;2022-11-15T14:21:19;14.10;99.90
15296;DHT22;7749;49.964;7.890;2022-11-15T14:23:47;14.20;99.90
15296;DHT22;7749;49.964;7.890;2022-11-15T14:28:55;14.20;99.90
15296;DHT22;7749;49.964;7.890;2022-11-15T14:31:22;14.20;99.90
15296;DHT22;7749;49.964;7.890;2022-11-15T14:33:50;14.20;99.90
15296;DHT22;7749;49.964;7.890;2022-11-15T14:36:19;14.10;99.90
15296;DHT22;7749;49.964;7.890;2022-11-15T14:38:47;14.10;99.90
15296;DHT22;7749;49.964;7.890;2022-11-15T14:41:21;14.00;99.90
15296;DHT22;7749;49.964;7.890;2022-11-15T14:43:50;13.90;99.90
15296;DHT22;7749;49.964;7.890;2022-11-15T14:46:18;13.90;99.90
15296;DHT22;7749;49.964;7.890;2022-11-15T14:48:46;13.80;99.90
15296;DHT22;7749;49.964;7.890;2022-11-15T14:51:16;13.70;99.90
15296;DHT22;7749;49.964;7.890;2022-11-15T14:53:44;13.60;99.90
15296;DHT22;7749;49.964;7.890;2022-11-15T14:56:13;13.60;99.90
15296;DHT22;7749;49.964;7.890;2022-11-15T14:58:41;13.50;99.90
15296;DHT22;7749;49.964;7.890;2022-11-15T15:01:21;13.40;99.90
15296;DHT22;7749;49.964;7.890;2022-11-15T15:03:51;13.40;99.90
15296;DHT22;7749;49.964;7.890;2022-11-15T15:06:19;13.30;99.90
15296;DHT22;7749;49.964;7.890;2022-11-15T15:08:47;13.20;99.90
15296;DHT22;7749;49.964;7.890;2022-11-15T15:11:30;13.20;99.90
15296;DHT22;7749;49.964;7.890;2022-11-15T15:13:58;13.10;99.90
15296;DHT22;7749;49.964;7.890;2022-11-15T15:16:28;13.00;99.90
15296;DHT22;7749;49.964;7.890;2022-11-15T15:18:59;12.90;99.90
15296;DHT22;7749;49.964;7.890;2022-11-15T15:21:27;13.00;99.90
15296;DHT22;7749;49.964;7.890;2022-11-15T15:24:03;12.90;99.90
15296;DHT22;7749;49.964;7.890;2022-11-15T15:26:31;12.90;99.90
15296;DHT22;7749;49.964;7.890;2022-11-15T15:29:03;12.80;99.90
15296;DHT22;7749;49.964;7.890;2022-11-15T15:31:31;12.80;99.90
15296;DHT22;7749;49.964;7.890;2022-11-15T15:34:00;12.70;99.90
15296;DHT22;7749;49.964;7.890;2022-11-15T15:36:28;12.70;99.90
15296;DHT22;7749;49.964;7.890;2022-11-15T15:38:56;12.70;99.90
15296;DHT22;7749;49.964;7.890;2022-11-15T15:41:23;12.60;99.90
15296;DHT22;7749;49.964;7.890;2022-11-15T15:43:51;12.60;99.90
15296;DHT22;7749;49.964;7.890;2022-11-15T15:46:19;12.60;99.90
15296;DHT22;7749;49.964;7.890;2022-11-15T15:48:48;12.60;99.90
15296;DHT22;7749;49.964;7.890;2022-11-15T15:51:16;12.50;99.90
15296;DHT22;7749;49.964;7.890;2022-11-15T15:53:47;12.50;99.90
15296;DHT22;7749;49.964;7.890;2022-11-15T15:56:40;12.50;99.90
15296;DHT22;7749;49.964;7.890;2022-11-15T15:59:08;12.50;99.90
15296;DHT22;7749;49.964;7.890;2022-11-15T16:01:35;12.50;99.90
15296;DHT22;7749;49.964;7.890;2022-11-15T16:04:03;12.50;99.90
15296;DHT22;7749;49.964;7.890;2022-11-15T16:09:03;12.40;99.90
15296;DHT22;7749;49.964;7.890;2022-11-15T16:11:47;12.40;99.90
15296;DHT22;7749;49.964;7.890;2022-11-15T16:14:15;12.40;99.90
15296;DHT22;7749;49.964;7.890;2022-11-15T16:16:42;12.40;99.90
15296;DHT22;7749;49.964;7.890;2022-11-15T16:19:10;12.40;99.90
15296;DHT22;7749;49.964;7.890;2022-11-15T16:21:39;12.30;99.90
15296;DHT22;7749;49.964;7.890;2022-11-15T16:24:18;12.40;99.90
15296;DHT22;7749;49.964;7.890;2022-11-15T16:26:47;12.50;99.90
15296;DHT22;7749;49.964;7.890;2022-11-15T16:29:15;12.40;99.90
15296;DHT22;7749;49.964;7.890;2022-11-15T16:31:51;12.40;99.90
15296;DHT22;7749;49.964;7.890;2022-11-15T16:34:19;12.40;99.90
15296;DHT22;7749;49.964;7.890;2022-11-15T16:36:47;12.40;99.90
15296;DHT22;7749;49.964;7.890;2022-11-15T16:39:15;12.30;99.90
15296;DHT22;7749;49.964;7.890;2022-11-15T16:41:45;12.40;99.90
15296;DHT22;7749;49.964;7.890;2022-11-15T16:44:14;12.40;99.90
15296;DHT22;7749;49.964;7.890;2022-11-15T16:46:42;12.40;99.90
15296;DHT22;7749;49.964;7.890;2022-11-15T16:49:14;12.40;99.90
15296;DHT22;7749;49.964;7.890;2022-11-15T16:51:42;12.30;99.90
15296;DHT22;7749;49.964;7.890;2022-11-15T16:54:12;12.30;99.90
15296;DHT22;7749;49.964;7.890;2022-11-15T16:56:40;12.30;99.90
15296;DHT22;7749;49.964;7.890;2022-11-15T16:59:14;12.30;99.90
15296;DHT22;7749;49.964;7.890;2022-11-15T17:01:43;12.20;99.90
15296;DHT22;7749;49.964;7.890;2022-11-15T17:04:18;12.30;99.90
15296;DHT22;7749;49.964;7.890;2022-11-15T17:06:47;12.30;99.90
15296;DHT22;7749;49.964;7.890;2022-11-15T17:09:19;12.30;99.90
15296;DHT22;7749;49.964;7.890;2022-11-15T17:11:50;12.30;99.90
15296;DHT22;7749;49.964;7.890;2022-11-15T17:14:18;12.30;99.90
15296;DHT22;7749;49.964;7.890;2022-11-15T17:16:45;12.20;99.90
15296;DHT22;7749;49.964;7.890;2022-11-15T17:19:20;12.20;99.90
15296;DHT22;7749;49.964;7.890;2022-11-15T17:21:48;12.10;99.90
15296;DHT22;7749;49.964;7.890;2022-11-15T17:24:16;12.20;99.90
15296;DHT22;7749;49.964;7.890;2022-11-15T17:26:44;12.20;99.90
15296;DHT22;7749;49.964;7.890;2022-11-15T17:29:12;12.10;99.90
15296;DHT22;7749;49.964;7.890;2022-11-15T17:31:39;12.20;99.90
15296;DHT22;7749;49.964;7.890;2022-11-15T17:34:07;12.20;99.90
15296;DHT22;7749;49.964;7.890;2022-11-15T17:36:35;12.10;99.90
15296;DHT22;7749;49.964;7.890;2022-11-15T17:39:03;12.10;99.90
15296;DHT22;7749;49.964;7.890;2022-11-15T17:41:31;12.10;99.90
15296;DHT22;7749;49.964;7.890;2022-11-15T17:43:59;12.10;99.90
15296;DHT22;7749;49.964;7.890;2022-11-15T17:46:30;12.00;99.90
15296;DHT22;7749;49.964;7.890;2022-11-15T17:48:58;12.10;99.90
15296;DHT22;7749;49.964;7.890;2022-11-15T17:51:26;12.00;99.90
15296;DHT22;7749;49.964;7.890;2022-11-15T17:53:54;12.00;99.90
15296;DHT22;7749;49.964;7.890;2022-11-15T17:56:24;12.00;99.90